sensor_id;sensor_type;location;lat;lon;timestamp;P1;durP1;ratioP1;P2;durP2;ratioP2
51578;SDS011;47998;53.242;6.386;2022-08-02T00:00:26;12.88;;;7.80;;
51578;SDS011;47998;53.242;6.386;2022-08-02T00:02:52;15.02;;;8.00;;
51578;SDS011;47998;53.242;6.386;2022-08-02T00:05:18;19.77;;;7.80;;
51578;SDS011;47998;53.242;6.386;2022-08-02T00:07:43;14.00;;;7.45;;
51578;SDS011;47998;53.242;6.386;2022-08-02T00:10:09;12.18;;;6.75;;
51578;SDS011;47998;53.242;6.386;2022-08-02T00:12:36;16.35;;;7.20;;
51578;SDS011;47998;53.242;6.386;2022-08-02T00:15:04;18.65;;;7.93;;
51578;SDS011;47998;53.242;6.386;2022-08-02T00:17:31;17.20;;;7.78;;
51578;SDS011;47998;53.242;6.386;2022-08-02T00:19:56;22.38;;;9.13;;
51578;SDS011;47998;53.242;6.386;2022-08-02T00:22:22;10.88;;;7.07;;
51578;SDS011;47998;53.242;6.386;2022-08-02T00:24:48;14.77;;;7.78;;
51578;SDS011;47998;53.242;6.386;2022-08-02T00:27:13;16.65;;;7.53;;
51578;SDS011;47998;53.242;6.386;2022-08-02T00:29:39;13.52;;;6.95;;
51578;SDS011;47998;53.242;6.386;2022-08-02T00:32:05;18.55;;;8.23;;
51578;SDS011;47998;53.242;6.386;2022-08-02T00:34:30;14.70;;;7.30;;
51578;SDS011;47998;53.242;6.386;2022-08-02T00:36:56;16.17;;;7.35;;
51578;SDS011;47998;53.242;6.386;2022-08-02T00:39:22;15.02;;;7.53;;
51578;SDS011;47998;53.242;6.386;2022-08-02T00:41:49;18.17;;;8.00;;
51578;SDS011;47998;53.242;6.386;2022-08-02T00:44:17;11.55;;;7.47;;
51578;SDS011;47998;53.242;6.386;2022-08-02T00:46:44;13.88;;;7.72;;
51578;SDS011;47998;53.242;6.386;2022-08-02T00:49:10;19.33;;;7.97;;
51578;SDS011;47998;53.242;6.386;2022-08-02T00:51:37;18.95;;;8.73;;
51578;SDS011;47998;53.242;6.386;2022-08-02T00:54:05;19.80;;;9.23;;
51578;SDS011;47998;53.242;6.386;2022-08-02T00:56:31;16.67;;;8.32;;
51578;SDS011;47998;53.242;6.386;2022-08-02T00:58:57;13.73;;;7.72;;
51578;SDS011;47998;53.242;6.386;2022-08-02T01:01:23;15.88;;;7.90;;
51578;SDS011;47998;53.242;6.386;2022-08-02T01:04:08;20.10;;;8.55;;
51578;SDS011;47998;53.242;6.386;2022-08-02T01:06:35;16.95;;;8.23;;
51578;SDS011;47998;53.242;6.386;2022-08-02T01:09:03;19.15;;;8.57;;
51578;SDS011;47998;53.242;6.386;2022-08-02T01:11:29;16.77;;;8.90;;
51578;SDS011;47998;53.242;6.386;2022-08-02T01:13:57;20.85;;;8.88;;
51578;SDS011;47998;53.242;6.386;2022-08-02T01:16:30;21.65;;;8.75;;
51578;SDS011;47998;53.242;6.386;2022-08-02T01:19:01;19.13;;;7.82;;
51578;SDS011;47998;53.242;6.386;2022-08-02T01:22:27;17.50;;;8.10;;
51578;SDS011;47998;53.242;6.386;2022-08-02T01:30:11;14.10;;;7.45;;
51578;SDS011;47998;53.242;6.386;2022-08-02T01:32:42;18.10;;;7.53;;
51578;SDS011;47998;53.242;6.386;2022-08-02T01:35:14;11.60;;;7.35;;
51578;SDS011;47998;53.242;6.386;2022-08-02T01:40:21;14.32;;;6.63;;
51578;SDS011;47998;53.242;6.386;2022-08-02T01:42:58;16.63;;;7.03;;
51578;SDS011;47998;53.242;6.386;2022-08-02T01:45:26;16.63;;;7.15;;
51578;SDS011;47998;53.242;6.386;2022-08-02T01:47:57;19.42;;;7.32;;
51578;SDS011;47998;53.242;6.386;2022-08-02T01:50:25;11.05;;;5.97;;
51578;SDS011;47998;53.242;6.386;2022-08-02T01:52:56;13.13;;;6.10;;
51578;SDS011;47998;53.242;6.386;2022-08-02T01:55:29;13.10;;;6.70;;
51578;SDS011;47998;53.242;6.386;2022-08-02T01:57:58;14.57;;;6.75;;
51578;SDS011;47998;53.242;6.386;2022-08-02T02:00:28;18.48;;;6.68;;
51578;SDS011;47998;53.242;6.386;2022-08-02T02:02:57;10.48;;;7.00;;
51578;SDS011;47998;53.242;6.386;2022-08-02T02:05:26;17.23;;;6.45;;
51578;SDS011;47998;53.242;6.386;2022-08-02T02:07:56;13.05;;;6.15;;
51578;SDS011;47998;53.242;6.386;2022-08-02T02:10:27;12.95;;;6.18;;
51578;SDS011;47998;53.242;6.386;2022-08-02T02:12:55;19.52;;;6.93;;
51578;SDS011;47998;53.242;6.386;2022-08-02T02:15:41;14.60;;;6.93;;
51578;SDS011;47998;53.242;6.386;2022-08-02T02:18:12;10.05;;;5.72;;
51578;SDS011;47998;53.242;6.386;2022-08-02T02:20:42;20.20;;;6.70;;
51578;SDS011;47998;53.242;6.386;2022-08-02T02:23:09;16.15;;;5.35;;
51578;SDS011;47998;53.242;6.386;2022-08-02T02:25:35;12.10;;;5.95;;
51578;SDS011;47998;53.242;6.386;2022-08-02T02:28:10;13.95;;;5.32;;
51578;SDS011;47998;53.242;6.386;2022-08-02T02:30:39;13.15;;;6.55;;
51578;SDS011;47998;53.242;6.386;2022-08-02T02:33:08;15.82;;;6.35;;
51578;SDS011;47998;53.242;6.386;2022-08-02T02:35:36;10.30;;;5.32;;
51578;SDS011;47998;53.242;6.386;2022-08-02T02:38:04;14.95;;;5.43;;
51578;SDS011;47998;53.242;6.386;2022-08-02T02:40:33;11.48;;;5.18;;
51578;SDS011;47998;53.242;6.386;2022-08-02T02:43:00;14.40;;;6.00;;
51578;SDS011;47998;53.242;6.386;2022-08-02T02:45:27;16.50;;;5.72;;
51578;SDS011;47998;53.242;6.386;2022-08-02T02:47:56;20.35;;;6.18;;
51578;SDS011;47998;53.242;6.386;2022-08-02T02:50:23;22.75;;;7.07;;
51578;SDS011;47998;53.242;6.386;2022-08-02T02:52:49;13.23;;;5.63;;
51578;SDS011;47998;53.242;6.386;2022-08-02T02:55:17;14.35;;;5.63;;
51578;SDS011;47998;53.242;6.386;2022-08-02T02:57:43;14.02;;;6.05;;
51578;SDS011;47998;53.242;6.386;2022-08-02T03:00:11;15.32;;;6.10;;
51578;SDS011;47998;53.242;6.386;2022-08-02T03:02:39;10.27;;;5.97;;
51578;SDS011;47998;53.242;6.386;2022-08-02T03:05:07;13.38;;;5.80;;
51578;SDS011;47998;53.242;6.386;2022-08-02T03:07:34;17.63;;;6.30;;
51578;SDS011;47998;53.242;6.386;2022-08-02T03:10:01;11.45;;;5.47;;
51578;SDS011;47998;53.242;6.386;2022-08-02T03:12:28;17.23;;;5.88;;
51578;SDS011;47998;53.242;6.386;2022-08-02T03:14:55;10.90;;;5.60;;
51578;SDS011;47998;53.242;6.386;2022-08-02T03:17:35;12.57;;;5.72;;
51578;SDS011;47998;53.242;6.386;2022-08-02T03:20:05;15.10;;;7.05;;
51578;SDS011;47998;53.242;6.386;2022-08-02T03:22:35;15.75;;;6.22;;
51578;SDS011;47998;53.242;6.386;2022-08-02T03:25:01;15.48;;;6.30;;
51578;SDS011;47998;53.242;6.386;2022-08-02T03:27:27;16.00;;;6.13;;
51578;SDS011;47998;53.242;6.386;2022-08-02T03:29:52;12.98;;;5.93;;
51578;SDS011;47998;53.242;6.386;2022-08-02T03:32:18;15.80;;;6.38;;
51578;SDS011;47998;53.242;6.386;2022-08-02T03:34:44;11.70;;;6.20;;
51578;SDS011;47998;53.242;6.386;2022-08-02T03:37:10;10.30;;;5.57;;
51578;SDS011;47998;53.242;6.386;2022-08-02T03:39:36;11.27;;;6.30;;
51578;SDS011;47998;53.242;6.386;2022-08-02T03:42:02;11.38;;;6.03;;
51578;SDS011;47998;53.242;6.386;2022-08-02T03:44:28;11.60;;;6.55;;
51578;SDS011;47998;53.242;6.386;2022-08-02T03:46:55;14.30;;;6.72;;
51578;SDS011;47998;53.242;6.386;2022-08-02T03:49:22;16.80;;;6.93;;
51578;SDS011;47998;53.242;6.386;2022-08-02T03:51:48;18.33;;;7.07;;
51578;SDS011;47998;53.242;6.386;2022-08-02T03:54:13;14.93;;;6.50;;
51578;SDS011;47998;53.242;6.386;2022-08-02T03:56:41;16.13;;;6.47;;
51578;SDS011;47998;53.242;6.386;2022-08-02T03:59:08;13.43;;;6.18;;
51578;SDS011;47998;53.242;6.386;2022-08-02T04:01:35;12.30;;;6.38;;
51578;SDS011;47998;53.242;6.386;2022-08-02T04:04:00;15.48;;;6.80;;
51578;SDS011;47998;53.242;6.386;2022-08-02T04:06:26;10.85;;;7.20;;
51578;SDS011;47998;53.242;6.386;2022-08-02T04:08:52;16.67;;;6.63;;
51578;SDS011;47998;53.242;6.386;2022-08-02T04:11:17;10.07;;;6.32;;
51578;SDS011;47998;53.242;6.386;2022-08-02T04:14:02;17.25;;;7.47;;
51578;SDS011;47998;53.242;6.386;2022-08-02T04:19:11;11.98;;;5.90;;
51578;SDS011;47998;53.242;6.386;2022-08-02T04:21:41;15.38;;;5.68;;
51578;SDS011;47998;53.242;6.386;2022-08-02T04:24:10;10.73;;;6.00;;
51578;SDS011;47998;53.242;6.386;2022-08-02T04:26:36;10.52;;;5.43;;
51578;SDS011;47998;53.242;6.386;2022-08-02T04:29:04;12.85;;;6.50;;
51578;SDS011;47998;53.242;6.386;2022-08-02T04:31:31;13.93;;;6.85;;
51578;SDS011;47998;53.242;6.386;2022-08-02T04:33:57;13.63;;;6.32;;
51578;SDS011;47998;53.242;6.386;2022-08-02T04:36:23;15.70;;;6.57;;
51578;SDS011;47998;53.242;6.386;2022-08-02T04:38:49;18.27;;;6.30;;
51578;SDS011;47998;53.242;6.386;2022-08-02T04:41:15;14.20;;;7.30;;
51578;SDS011;47998;53.242;6.386;2022-08-02T04:43:41;17.67;;;6.15;;
51578;SDS011;47998;53.242;6.386;2022-08-02T04:46:06;15.80;;;6.43;;
51578;SDS011;47998;53.242;6.386;2022-08-02T04:48:32;8.75;;;5.50;;
51578;SDS011;47998;53.242;6.386;2022-08-02T04:50:58;13.55;;;5.75;;
51578;SDS011;47998;53.242;6.386;2022-08-02T04:53:24;16.50;;;6.15;;
51578;SDS011;47998;53.242;6.386;2022-08-02T04:55:50;12.63;;;5.93;;
51578;SDS011;47998;53.242;6.386;2022-08-02T04:58:16;11.70;;;6.20;;
51578;SDS011;47998;53.242;6.386;2022-08-02T05:00:42;10.43;;;5.45;;
51578;SDS011;47998;53.242;6.386;2022-08-02T05:03:08;17.25;;;5.53;;
51578;SDS011;47998;53.242;6.386;2022-08-02T05:05:34;12.15;;;5.82;;
51578;SDS011;47998;53.242;6.386;2022-08-02T05:08:00;16.70;;;5.82;;
51578;SDS011;47998;53.242;6.386;2022-08-02T05:10:26;13.43;;;6.00;;
51578;SDS011;47998;53.242;6.386;2022-08-02T05:12:52;18.65;;;6.28;;
51578;SDS011;47998;53.242;6.386;2022-08-02T05:15:19;14.88;;;5.50;;
51578;SDS011;47998;53.242;6.386;2022-08-02T05:17:45;14.27;;;4.90;;
51578;SDS011;47998;53.242;6.386;2022-08-02T05:20:13;14.05;;;6.15;;
51578;SDS011;47998;53.242;6.386;2022-08-02T05:22:39;18.17;;;5.85;;
51578;SDS011;47998;53.242;6.386;2022-08-02T05:25:06;14.10;;;4.60;;
51578;SDS011;47998;53.242;6.386;2022-08-02T05:27:32;13.98;;;5.10;;
51578;SDS011;47998;53.242;6.386;2022-08-02T05:29:58;13.88;;;4.53;;
51578;SDS011;47998;53.242;6.386;2022-08-02T05:32:24;20.00;;;4.43;;
51578;SDS011;47998;53.242;6.386;2022-08-02T05:34:50;10.90;;;4.43;;
51578;SDS011;47998;53.242;6.386;2022-08-02T05:37:16;15.77;;;4.22;;
51578;SDS011;47998;53.242;6.386;2022-08-02T05:39:42;12.02;;;4.65;;
51578;SDS011;47998;53.242;6.386;2022-08-02T05:42:09;14.00;;;4.90;;
51578;SDS011;47998;53.242;6.386;2022-08-02T05:44:34;10.75;;;4.18;;
51578;SDS011;47998;53.242;6.386;2022-08-02T05:47:00;11.57;;;4.53;;
51578;SDS011;47998;53.242;6.386;2022-08-02T05:49:26;10.27;;;4.00;;
51578;SDS011;47998;53.242;6.386;2022-08-02T05:51:55;10.43;;;3.80;;
51578;SDS011;47998;53.242;6.386;2022-08-02T05:57:04;12.73;;;3.75;;
51578;SDS011;47998;53.242;6.386;2022-08-02T06:02:23;11.45;;;3.30;;
51578;SDS011;47998;53.242;6.386;2022-08-02T06:07:28;9.02;;;3.00;;
51578;SDS011;47998;53.242;6.386;2022-08-02T06:09:56;11.85;;;2.72;;
51578;SDS011;47998;53.242;6.386;2022-08-02T06:12:24;8.85;;;3.00;;
51578;SDS011;47998;53.242;6.386;2022-08-02T06:14:53;8.65;;;3.08;;
51578;SDS011;47998;53.242;6.386;2022-08-02T06:17:20;6.82;;;2.92;;
51578;SDS011;47998;53.242;6.386;2022-08-02T06:19:46;8.60;;;2.55;;
51578;SDS011;47998;53.242;6.386;2022-08-02T06:22:13;10.25;;;2.80;;
51578;SDS011;47998;53.242;6.386;2022-08-02T06:24:43;11.18;;;2.97;;
51578;SDS011;47998;53.242;6.386;2022-08-02T06:27:13;5.18;;;2.03;;
51578;SDS011;47998;53.242;6.386;2022-08-02T06:29:39;6.88;;;2.55;;
51578;SDS011;47998;53.242;6.386;2022-08-02T06:32:07;8.50;;;2.17;;
51578;SDS011;47998;53.242;6.386;2022-08-02T06:34:39;7.32;;;2.78;;
51578;SDS011;47998;53.242;6.386;2022-08-02T06:39:50;7.25;;;2.40;;
51578;SDS011;47998;53.242;6.386;2022-08-02T06:42:20;9.57;;;2.22;;
51578;SDS011;47998;53.242;6.386;2022-08-02T06:44:52;8.50;;;2.63;;
51578;SDS011;47998;53.242;6.386;2022-08-02T06:47:17;9.63;;;2.30;;
51578;SDS011;47998;53.242;6.386;2022-08-02T06:49:43;8.20;;;2.05;;
51578;SDS011;47998;53.242;6.386;2022-08-02T06:52:09;9.82;;;2.00;;
51578;SDS011;47998;53.242;6.386;2022-08-02T06:54:35;9.80;;;2.10;;
51578;SDS011;47998;53.242;6.386;2022-08-02T06:57:03;7.10;;;2.40;;
51578;SDS011;47998;53.242;6.386;2022-08-02T06:59:29;5.03;;;2.08;;
51578;SDS011;47998;53.242;6.386;2022-08-02T07:01:54;8.98;;;2.47;;
51578;SDS011;47998;53.242;6.386;2022-08-02T07:04:21;8.05;;;2.20;;
51578;SDS011;47998;53.242;6.386;2022-08-02T07:06:47;8.20;;;2.13;;
51578;SDS011;47998;53.242;6.386;2022-08-02T07:09:13;7.68;;;2.05;;
51578;SDS011;47998;53.242;6.386;2022-08-02T07:11:39;6.10;;;1.67;;
51578;SDS011;47998;53.242;6.386;2022-08-02T07:14:05;8.60;;;1.92;;
51578;SDS011;47998;53.242;6.386;2022-08-02T07:16:31;7.03;;;1.80;;
51578;SDS011;47998;53.242;6.386;2022-08-02T07:18:57;5.45;;;1.30;;
51578;SDS011;47998;53.242;6.386;2022-08-02T07:21:22;6.45;;;1.83;;
51578;SDS011;47998;53.242;6.386;2022-08-02T07:23:48;5.30;;;1.50;;
51578;SDS011;47998;53.242;6.386;2022-08-02T07:26:14;4.63;;;1.33;;
51578;SDS011;47998;53.242;6.386;2022-08-02T07:28:39;5.20;;;1.20;;
51578;SDS011;47998;53.242;6.386;2022-08-02T07:31:05;6.97;;;1.60;;
51578;SDS011;47998;53.242;6.386;2022-08-02T07:33:31;5.70;;;1.60;;
51578;SDS011;47998;53.242;6.386;2022-08-02T07:35:56;7.05;;;1.30;;
51578;SDS011;47998;53.242;6.386;2022-08-02T07:38:22;3.15;;;0.90;;
51578;SDS011;47998;53.242;6.386;2022-08-02T07:40:49;3.35;;;0.68;;
51578;SDS011;47998;53.242;6.386;2022-08-02T07:43:15;5.97;;;1.75;;
51578;SDS011;47998;53.242;6.386;2022-08-02T07:45:43;3.53;;;1.13;;
51578;SDS011;47998;53.242;6.386;2022-08-02T07:48:08;5.70;;;1.25;;
51578;SDS011;47998;53.242;6.386;2022-08-02T07:50:34;2.45;;;0.80;;
51578;SDS011;47998;53.242;6.386;2022-08-02T07:53:00;3.92;;;1.55;;
51578;SDS011;47998;53.242;6.386;2022-08-02T07:55:25;5.88;;;0.80;;
51578;SDS011;47998;53.242;6.386;2022-08-02T07:57:51;4.68;;;1.17;;
51578;SDS011;47998;53.242;6.386;2022-08-02T08:00:17;4.38;;;0.98;;
51578;SDS011;47998;53.242;6.386;2022-08-02T08:02:44;5.15;;;0.85;;
51578;SDS011;47998;53.242;6.386;2022-08-02T08:05:10;5.82;;;0.90;;
51578;SDS011;47998;53.242;6.386;2022-08-02T08:07:36;6.25;;;0.80;;
51578;SDS011;47998;53.242;6.386;2022-08-02T08:10:03;1.60;;;0.50;;
51578;SDS011;47998;53.242;6.386;2022-08-02T08:12:29;2.15;;;0.60;;
51578;SDS011;47998;53.242;6.386;2022-08-02T08:14:55;2.10;;;0.90;;
51578;SDS011;47998;53.242;6.386;2022-08-02T08:17:21;3.40;;;0.95;;
51578;SDS011;47998;53.242;6.386;2022-08-02T08:19:46;1.95;;;0.50;;
51578;SDS011;47998;53.242;6.386;2022-08-02T08:22:12;3.70;;;0.98;;
51578;SDS011;47998;53.242;6.386;2022-08-02T08:24:38;2.88;;;0.70;;
51578;SDS011;47998;53.242;6.386;2022-08-02T08:27:04;4.07;;;0.65;;
51578;SDS011;47998;53.242;6.386;2022-08-02T08:29:30;3.58;;;0.70;;
51578;SDS011;47998;53.242;6.386;2022-08-02T08:31:56;3.03;;;0.60;;
51578;SDS011;47998;53.242;6.386;2022-08-02T08:34:22;3.05;;;1.20;;
51578;SDS011;47998;53.242;6.386;2022-08-02T08:36:48;3.55;;;0.90;;
51578;SDS011;47998;53.242;6.386;2022-08-02T08:39:14;4.68;;;0.60;;
51578;SDS011;47998;53.242;6.386;2022-08-02T08:41:41;5.13;;;0.88;;
51578;SDS011;47998;53.242;6.386;2022-08-02T08:44:10;9.55;;;1.10;;
51578;SDS011;47998;53.242;6.386;2022-08-02T08:46:36;3.50;;;0.80;;
51578;SDS011;47998;53.242;6.386;2022-08-02T08:49:19;2.80;;;0.60;;
51578;SDS011;47998;53.242;6.386;2022-08-02T08:51:54;4.15;;;0.80;;
51578;SDS011;47998;53.242;6.386;2022-08-02T08:54:22;3.47;;;1.40;;
51578;SDS011;47998;53.242;6.386;2022-08-02T08:56:50;1.27;;;0.68;;
51578;SDS011;47998;53.242;6.386;2022-08-02T08:59:16;6.70;;;0.80;;
51578;SDS011;47998;53.242;6.386;2022-08-02T09:01:45;2.25;;;0.75;;
51578;SDS011;47998;53.242;6.386;2022-08-02T09:04:12;8.00;;;0.90;;
51578;SDS011;47998;53.242;6.386;2022-08-02T09:06:38;1.15;;;0.65;;
51578;SDS011;47998;53.242;6.386;2022-08-02T09:09:04;6.45;;;0.65;;
51578;SDS011;47998;53.242;6.386;2022-08-02T09:11:30;2.00;;;0.80;;
51578;SDS011;47998;53.242;6.386;2022-08-02T09:13:59;4.00;;;0.93;;
51578;SDS011;47998;53.242;6.386;2022-08-02T09:16:27;1.83;;;0.70;;
51578;SDS011;47998;53.242;6.386;2022-08-02T09:19:15;5.13;;;1.17;;
51578;SDS011;47998;53.242;6.386;2022-08-02T09:21:41;8.18;;;1.13;;
51578;SDS011;47998;53.242;6.386;2022-08-02T09:24:14;3.50;;;1.00;;
51578;SDS011;47998;53.242;6.386;2022-08-02T09:26:45;3.38;;;0.90;;
51578;SDS011;47998;53.242;6.386;2022-08-02T09:29:12;2.90;;;0.80;;
51578;SDS011;47998;53.242;6.386;2022-08-02T09:31:41;1.92;;;0.65;;
51578;SDS011;47998;53.242;6.386;2022-08-02T09:34:07;5.45;;;2.05;;
51578;SDS011;47998;53.242;6.386;2022-08-02T09:36:38;6.28;;;1.00;;
51578;SDS011;47998;53.242;6.386;2022-08-02T09:39:07;3.33;;;0.95;;
51578;SDS011;47998;53.242;6.386;2022-08-02T09:41:36;2.28;;;0.82;;
51578;SDS011;47998;53.242;6.386;2022-08-02T09:44:05;4.65;;;1.10;;
51578;SDS011;47998;53.242;6.386;2022-08-02T09:46:37;7.82;;;1.02;;
51578;SDS011;47998;53.242;6.386;2022-08-02T09:49:09;2.28;;;1.08;;
51578;SDS011;47998;53.242;6.386;2022-08-02T09:51:55;4.70;;;1.42;;
51578;SDS011;47998;53.242;6.386;2022-08-02T09:54:22;5.22;;;1.08;;
51578;SDS011;47998;53.242;6.386;2022-08-02T09:56:59;2.75;;;0.98;;
51578;SDS011;47998;53.242;6.386;2022-08-02T09:59:26;4.15;;;1.45;;
51578;SDS011;47998;53.242;6.386;2022-08-02T10:01:54;4.00;;;0.85;;
51578;SDS011;47998;53.242;6.386;2022-08-02T10:04:22;2.95;;;1.30;;
51578;SDS011;47998;53.242;6.386;2022-08-02T10:06:50;2.97;;;1.38;;
51578;SDS011;47998;53.242;6.386;2022-08-02T10:09:16;4.60;;;1.40;;
51578;SDS011;47998;53.242;6.386;2022-08-02T10:11:43;5.28;;;1.90;;
51578;SDS011;47998;53.242;6.386;2022-08-02T10:14:09;2.92;;;1.50;;
51578;SDS011;47998;53.242;6.386;2022-08-02T10:16:36;3.80;;;1.38;;
51578;SDS011;47998;53.242;6.386;2022-08-02T10:19:04;4.97;;;1.77;;
51578;SDS011;47998;53.242;6.386;2022-08-02T10:24:37;3.25;;;1.67;;
51578;SDS011;47998;53.242;6.386;2022-08-02T10:27:05;5.55;;;2.42;;
51578;SDS011;47998;53.242;6.386;2022-08-02T10:29:38;3.90;;;1.77;;
51578;SDS011;47998;53.242;6.386;2022-08-02T10:33:05;3.63;;;2.10;;
51578;SDS011;47998;53.242;6.386;2022-08-02T10:35:16;5.10;;;1.90;;
51578;SDS011;47998;53.242;6.386;2022-08-02T10:37:45;4.05;;;3.05;;
51578;SDS011;47998;53.242;6.386;2022-08-02T10:40:13;3.47;;;1.88;;
51578;SDS011;47998;53.242;6.386;2022-08-02T10:42:48;6.47;;;2.30;;
51578;SDS011;47998;53.242;6.386;2022-08-02T10:45:19;6.72;;;2.33;;
51578;SDS011;47998;53.242;6.386;2022-08-02T10:47:56;5.07;;;2.08;;
51578;SDS011;47998;53.242;6.386;2022-08-02T10:56:02;5.90;;;2.25;;
51578;SDS011;47998;53.242;6.386;2022-08-02T10:58:31;5.30;;;2.78;;
51578;SDS011;47998;53.242;6.386;2022-08-02T11:01:02;4.88;;;2.35;;
51578;SDS011;47998;53.242;6.386;2022-08-02T11:06:03;8.02;;;2.13;;
51578;SDS011;47998;53.242;6.386;2022-08-02T11:08:30;5.70;;;2.22;;
51578;SDS011;47998;53.242;6.386;2022-08-02T11:11:15;3.58;;;1.83;;
51578;SDS011;47998;53.242;6.386;2022-08-02T11:19:23;4.43;;;2.38;;
51578;SDS011;47998;53.242;6.386;2022-08-02T11:22:06;4.72;;;2.53;;
51578;SDS011;47998;53.242;6.386;2022-08-02T11:24:36;3.95;;;2.38;;
51578;SDS011;47998;53.242;6.386;2022-08-02T11:27:04;4.57;;;2.28;;
51578;SDS011;47998;53.242;6.386;2022-08-02T11:29:40;3.83;;;1.98;;
51578;SDS011;47998;53.242;6.386;2022-08-02T11:32:08;4.65;;;2.45;;
51578;SDS011;47998;53.242;6.386;2022-08-02T11:34:44;11.55;;;2.65;;
51578;SDS011;47998;53.242;6.386;2022-08-02T11:37:11;5.47;;;2.10;;
51578;SDS011;47998;53.242;6.386;2022-08-02T11:39:37;4.30;;;2.25;;
51578;SDS011;47998;53.242;6.386;2022-08-02T11:42:03;4.40;;;2.58;;
51578;SDS011;47998;53.242;6.386;2022-08-02T11:44:29;5.43;;;2.88;;
51578;SDS011;47998;53.242;6.386;2022-08-02T11:47:05;4.07;;;2.97;;
51578;SDS011;47998;53.242;6.386;2022-08-02T11:49:32;5.43;;;3.20;;
51578;SDS011;47998;53.242;6.386;2022-08-02T11:54:33;5.65;;;4.03;;
51578;SDS011;47998;53.242;6.386;2022-08-02T11:57:14;5.72;;;4.30;;
51578;SDS011;47998;53.242;6.386;2022-08-02T11:59:42;5.28;;;3.88;;
51578;SDS011;47998;53.242;6.386;2022-08-02T12:02:10;4.72;;;3.05;;
51578;SDS011;47998;53.242;6.386;2022-08-02T12:04:36;4.20;;;2.50;;
51578;SDS011;47998;53.242;6.386;2022-08-02T12:07:03;2.97;;;1.55;;
51578;SDS011;47998;53.242;6.386;2022-08-02T12:09:30;3.17;;;1.60;;
51578;SDS011;47998;53.242;6.386;2022-08-02T12:11:57;3.80;;;2.25;;
51578;SDS011;47998;53.242;6.386;2022-08-02T12:14:27;3.38;;;1.90;;
51578;SDS011;47998;53.242;6.386;2022-08-02T12:16:55;5.72;;;1.90;;
51578;SDS011;47998;53.242;6.386;2022-08-02T12:19:40;3.47;;;1.80;;
51578;SDS011;47998;53.242;6.386;2022-08-02T12:22:08;4.93;;;2.28;;
51578;SDS011;47998;53.242;6.386;2022-08-02T12:24:51;4.13;;;2.67;;
51578;SDS011;47998;53.242;6.386;2022-08-02T12:27:29;6.18;;;2.40;;
51578;SDS011;47998;53.242;6.386;2022-08-02T12:30:06;5.57;;;2.88;;
51578;SDS011;47998;53.242;6.386;2022-08-02T12:32:34;4.00;;;2.80;;
51578;SDS011;47998;53.242;6.386;2022-08-02T12:35:02;7.53;;;3.33;;
51578;SDS011;47998;53.242;6.386;2022-08-02T12:37:48;8.48;;;4.13;;
51578;SDS011;47998;53.242;6.386;2022-08-02T12:40:18;9.02;;;4.20;;
51578;SDS011;47998;53.242;6.386;2022-08-02T12:42:57;4.80;;;3.33;;
51578;SDS011;47998;53.242;6.386;2022-08-02T12:45:25;5.78;;;4.15;;
51578;SDS011;47998;53.242;6.386;2022-08-02T12:47:53;5.40;;;3.72;;
51578;SDS011;47998;53.242;6.386;2022-08-02T12:50:30;6.60;;;4.10;;
51578;SDS011;47998;53.242;6.386;2022-08-02T12:53:09;6.85;;;3.90;;
51578;SDS011;47998;53.242;6.386;2022-08-02T12:55:49;6.45;;;3.90;;
51578;SDS011;47998;53.242;6.386;2022-08-02T12:58:16;7.78;;;4.85;;
51578;SDS011;47998;53.242;6.386;2022-08-02T13:00:42;5.80;;;4.70;;
51578;SDS011;47998;53.242;6.386;2022-08-02T13:03:20;8.48;;;5.28;;
51578;SDS011;47998;53.242;6.386;2022-08-02T13:05:48;6.10;;;3.95;;
51578;SDS011;47998;53.242;6.386;2022-08-02T13:08:16;5.47;;;4.47;;
51578;SDS011;47998;53.242;6.386;2022-08-02T13:10:42;8.18;;;4.22;;
51578;SDS011;47998;53.242;6.386;2022-08-02T13:13:08;7.25;;;5.38;;
51578;SDS011;47998;53.242;6.386;2022-08-02T13:15:34;8.35;;;5.93;;
51578;SDS011;47998;53.242;6.386;2022-08-02T13:18:00;14.60;;;7.72;;
51578;SDS011;47998;53.242;6.386;2022-08-02T13:20:26;9.20;;;5.50;;
51578;SDS011;47998;53.242;6.386;2022-08-02T13:22:53;9.35;;;5.63;;
51578;SDS011;47998;53.242;6.386;2022-08-02T13:25:19;9.93;;;5.57;;
51578;SDS011;47998;53.242;6.386;2022-08-02T13:27:47;12.10;;;7.35;;
51578;SDS011;47998;53.242;6.386;2022-08-02T13:30:13;8.40;;;5.65;;
51578;SDS011;47998;53.242;6.386;2022-08-02T13:32:39;9.77;;;6.38;;
51578;SDS011;47998;53.242;6.386;2022-08-02T13:35:07;8.52;;;6.13;;
51578;SDS011;47998;53.242;6.386;2022-08-02T13:37:34;10.07;;;6.90;;
51578;SDS011;47998;53.242;6.386;2022-08-02T13:40:00;8.05;;;6.28;;
51578;SDS011;47998;53.242;6.386;2022-08-02T13:42:26;10.43;;;6.13;;
51578;SDS011;47998;53.242;6.386;2022-08-02T13:44:52;10.35;;;6.13;;
51578;SDS011;47998;53.242;6.386;2022-08-02T13:47:17;7.90;;;6.32;;
51578;SDS011;47998;53.242;6.386;2022-08-02T13:49:43;9.05;;;6.30;;
51578;SDS011;47998;53.242;6.386;2022-08-02T13:52:09;12.85;;;7.93;;
51578;SDS011;47998;53.242;6.386;2022-08-02T13:54:35;11.10;;;6.80;;
51578;SDS011;47998;53.242;6.386;2022-08-02T13:57:01;12.50;;;7.60;;
51578;SDS011;47998;53.242;6.386;2022-08-02T13:59:26;9.63;;;8.23;;
51578;SDS011;47998;53.242;6.386;2022-08-02T14:01:53;12.07;;;8.40;;
51578;SDS011;47998;53.242;6.386;2022-08-02T14:04:20;11.98;;;8.48;;
51578;SDS011;47998;53.242;6.386;2022-08-02T14:06:46;11.45;;;7.88;;
51578;SDS011;47998;53.242;6.386;2022-08-02T14:09:12;11.32;;;7.63;;
51578;SDS011;47998;53.242;6.386;2022-08-02T14:11:38;7.05;;;5.63;;
51578;SDS011;47998;53.242;6.386;2022-08-02T14:14:04;8.48;;;6.22;;
51578;SDS011;47998;53.242;6.386;2022-08-02T14:16:29;7.45;;;5.20;;
51578;SDS011;47998;53.242;6.386;2022-08-02T14:18:55;7.60;;;6.20;;
51578;SDS011;47998;53.242;6.386;2022-08-02T14:21:21;8.38;;;5.35;;
51578;SDS011;47998;53.242;6.386;2022-08-02T14:23:47;8.32;;;6.05;;
51578;SDS011;47998;53.242;6.386;2022-08-02T14:26:13;7.20;;;4.72;;
51578;SDS011;47998;53.242;6.386;2022-08-02T14:28:39;5.35;;;3.88;;
51578;SDS011;47998;53.242;6.386;2022-08-02T14:31:05;9.88;;;6.40;;
51578;SDS011;47998;53.242;6.386;2022-08-02T14:33:30;7.97;;;6.10;;
51578;SDS011;47998;53.242;6.386;2022-08-02T14:35:56;11.80;;;6.57;;
51578;SDS011;47998;53.242;6.386;2022-08-02T14:38:22;10.55;;;7.35;;
51578;SDS011;47998;53.242;6.386;2022-08-02T14:40:48;8.45;;;6.53;;
51578;SDS011;47998;53.242;6.386;2022-08-02T14:43:14;9.38;;;6.97;;
51578;SDS011;47998;53.242;6.386;2022-08-02T14:46:00;12.77;;;8.00;;
51578;SDS011;47998;53.242;6.386;2022-08-02T14:48:26;12.57;;;7.78;;
51578;SDS011;47998;53.242;6.386;2022-08-02T14:50:53;11.88;;;8.30;;
51578;SDS011;47998;53.242;6.386;2022-08-02T14:53:18;12.60;;;7.90;;
51578;SDS011;47998;53.242;6.386;2022-08-02T14:55:44;11.00;;;8.20;;
51578;SDS011;47998;53.242;6.386;2022-08-02T14:58:10;8.52;;;6.40;;
51578;SDS011;47998;53.242;6.386;2022-08-02T15:00:36;12.65;;;7.38;;
51578;SDS011;47998;53.242;6.386;2022-08-02T15:03:02;10.95;;;7.72;;
51578;SDS011;47998;53.242;6.386;2022-08-02T15:05:28;11.70;;;7.45;;
51578;SDS011;47998;53.242;6.386;2022-08-02T15:07:53;7.53;;;6.38;;
51578;SDS011;47998;53.242;6.386;2022-08-02T15:10:19;8.52;;;7.10;;
51578;SDS011;47998;53.242;6.386;2022-08-02T15:12:46;8.90;;;6.22;;
51578;SDS011;47998;53.242;6.386;2022-08-02T15:15:11;8.30;;;6.38;;
51578;SDS011;47998;53.242;6.386;2022-08-02T15:17:37;11.65;;;6.72;;
51578;SDS011;47998;53.242;6.386;2022-08-02T15:20:03;6.60;;;5.50;;
51578;SDS011;47998;53.242;6.386;2022-08-02T15:22:29;8.63;;;5.85;;
51578;SDS011;47998;53.242;6.386;2022-08-02T15:24:55;6.50;;;5.22;;
51578;SDS011;47998;53.242;6.386;2022-08-02T15:27:21;10.05;;;5.78;;